Time;durP1;ratioP1;P1;durP2;ratioP2;P2;SDS_P1;SDS_P2;PMS_P1;PMS_P2;Temp;Humidity;BMP_temperature;BMP_pressure;BME280_temperature;BME280_humidity;BME280_pressure;Samples;Min_cycle;Max_cycle;Signal;HPM_P1;HPM_P2
2022/03/04 00:01:56;;;;;;;30.27;17.05;;;-2.30;99.90;;;;;;5111640;28;20090;-58
2022/03/04 00:04:22;;;;;;;30.33;16.30;;;-2.30;99.90;;;;;;5112334;28;20023;-57
2022/03/04 00:06:48;;;;;;;31.60;17.77;;;-2.30;99.90;;;;;;5112469;28;20076;-58
2022/03/04 00:09:13;;;;;;;30.88;17.83;;;-2.30;99.90;;;;;;5112326;28;20028;-56
2022/03/04 00:11:39;;;;;;;30.13;16.88;;;-2.40;99.90;;;;;;5112069;28;20038;-59
2022/03/04 00:14:05;;;;;;;29.25;16.98;;;-2.40;99.90;;;;;;5112302;28;20015;-54
2022/03/04 00:16:31;;;;;;;27.70;16.55;;;-2.40;99.90;;;;;;5111904;28;20362;-57
2022/03/04 00:19:07;;;;;;;25.65;16.98;;;-2.40;99.90;;;;;;5093790;28;20498;-59
2022/03/04 00:21:38;;;;;;;30.48;17.00;;;-2.40;99.90;;;;;;5093857;28;20374;-58
2022/03/04 00:24:05;;;;;;;28.73;17.05;;;-2.50;99.90;;;;;;5093767;28;20023;-58
2022/03/04 00:26:31;;;;;;;25.38;16.77;;;-2.60;99.90;;;;;;5093748;28;20020;-57
2022/03/04 00:28:57;;;;;;;31.48;17.95;;;-2.70;99.90;;;;;;5111252;28;20032;-58
2022/03/04 00:31:24;;;;;;;33.38;18.23;;;-2.70;99.90;;;;;;5111142;28;20024;-58
2022/03/04 00:33:50;;;;;;;30.52;17.95;;;-2.80;99.90;;;;;;5112023;28;20032;-58
2022/03/04 00:36:15;;;;;;;37.08;19.38;;;-2.80;99.90;;;;;;5112094;28;20027;-58
2022/03/04 00:38:41;;;;;;;32.05;18.88;;;-2.90;99.90;;;;;;5112007;28;20026;-58
2022/03/04 00:41:07;;;;;;;31.48;18.33;;;-2.90;99.90;;;;;;5112012;28;20053;-58
2022/03/04 00:43:33;;;;;;;28.02;17.02;;;-2.90;99.90;;;;;;5111749;28;20336;-58
2022/03/04 00:45:59;;;;;;;32.63;18.95;;;-2.90;99.90;;;;;;5111850;28;20031;-58
2022/03/04 00:48:25;;;;;;;33.88;18.10;;;-2.90;99.90;;;;;;5111745;28;20034;-58
2022/03/04 00:50:51;;;;;;;31.42;17.90;;;-2.90;99.90;;;;;;5111909;28;20027;-58
2022/03/04 00:53:18;;;;;;;38.47;19.40;;;-2.90;99.90;;;;;;5111551;28;20428;-59
2022/03/04 00:55:44;;;;;;;32.30;17.17;;;-2.90;99.90;;;;;;5110854;28;20020;-58
2022/03/04 00:58:09;;;;;;;37.22;18.80;;;-2.80;99.90;;;;;;5110853;28;20130;-57
2022/03/04 01:00:36;;;;;;;39.58;17.38;;;-2.80;99.90;;;;;;5092945;28;20016;-57
2022/03/04 01:03:03;;;;;;;35.00;17.35;;;-2.80;99.90;;;;;;5110760;28;20101;-57
2022/03/04 01:05:29;;;;;;;35.30;19.00;;;-2.80;99.90;;;;;;5110633;28;20020;-59
2022/03/04 01:07:54;;;;;;;35.55;19.52;;;-2.80;99.90;;;;;;5111067;28;20106;-58
2022/03/04 01:10:20;;;;;;;31.73;17.77;;;-2.80;99.90;;;;;;5111275;28;20103;-57
2022/03/04 01:12:46;;;;;;;36.67;19.58;;;-2.80;99.90;;;;;;5111584;28;20519;-59
2022/03/04 01:15:12;;;;;;;30.35;17.25;;;-2.80;99.90;;;;;;5115557;28;20011;-56
2022/03/04 01:17:38;;;;;;;34.75;18.77;;;-2.80;99.90;;;;;;5115218;28;20136;-58
2022/03/04 01:20:05;;;;;;;34.72;18.55;;;-2.90;99.90;;;;;;5115590;28;20502;-58
2022/03/04 01:22:31;;;;;;;30.48;19.25;;;-3.00;99.90;;;;;;5115256;28;20020;-58
2022/03/04 01:24:57;;;;;;;34.78;21.42;;;-3.10;99.90;;;;;;5097143;28;20114;-58
2022/03/04 01:27:23;;;;;;;38.70;18.73;;;-3.10;99.90;;;;;;5115421;28;20034;-57
2022/03/04 01:29:49;;;;;;;31.60;18.30;;;-3.20;99.90;;;;;;5115374;28;20020;-57
2022/03/04 01:32:15;;;;;;;36.58;19.05;;;-3.10;99.90;;;;;;5115427;28;20031;-58
2022/03/04 01:34:41;;;;;;;36.45;18.58;;;-3.10;99.90;;;;;;5115180;28;20028;-58
2022/03/04 01:37:08;;;;;;;29.00;18.42;;;-3.10;99.90;;;;;;5115201;28;20019;-58
2022/03/04 01:39:35;;;;;;;32.60;18.40;;;-3.10;99.90;;;;;;5115007;28;20024;-58
2022/03/04 01:42:01;;;;;;;36.55;18.50;;;-3.10;99.90;;;;;;5115081;28;20077;-57
2022/03/04 01:44:26;;;;;;;31.20;18.50;;;-3.20;99.90;;;;;;5114955;28;20031;-57
2022/03/04 01:46:52;;;;;;;37.40;20.63;;;-3.20;99.90;;;;;;5115076;28;20448;-58
2022/03/04 01:49:18;;;;;;;32.50;18.63;;;-3.20;99.90;;;;;;5114954;28;20518;-58
2022/03/04 01:51:44;;;;;;;33.67;20.17;;;-3.20;99.90;;;;;;5114851;28;20381;-58
2022/03/04 01:54:09;;;;;;;34.25;19.35;;;-3.20;99.90;;;;;;5114957;28;20118;-58
2022/03/04 01:56:35;;;;;;;34.65;20.60;;;-3.20;99.90;;;;;;5114571;28;20027;-58
2022/03/04 01:59:01;;;;;;;42.47;18.60;;;-3.20;99.90;;;;;;5114791;28;20035;-58
2022/03/04 02:01:27;;;;;;;34.03;18.80;;;-3.30;99.90;;;;;;5096217;28;20623;-58
2022/03/04 02:03:53;;;;;;;54.83;24.33;;;-3.30;99.90;;;;;;5114780;28;20038;-58
2022/03/04 02:06:19;;;;;;;48.72;25.67;;;-3.40;99.90;;;;;;5114514;28;20023;-59
2022/03/04 02:08:44;;;;;;;51.08;28.27;;;-3.40;99.90;;;;;;5114595;28;20062;-58
2022/03/04 02:11:10;;;;;;;44.80;22.40;;;-3.40;99.90;;;;;;5114574;28;20032;-58
2022/03/04 02:13:37;;;;;;;52.17;25.80;;;-3.50;99.90;;;;;;5114386;28;20030;-57
2022/03/04 02:16:09;;;;;;;54.95;25.15;;;-3.50;99.90;;;;;;5113771;28;20016;-58
2022/03/04 02:18:34;;;;;;;46.17;23.92;;;-3.50;99.90;;;;;;5095035;28;20035;-58
2022/03/04 02:21:02;;;;;;;36.78;20.48;;;-3.60;99.90;;;;;;5114318;28;20592;-58
2022/03/04 02:23:28;;;;;;;44.85;23.17;;;-3.60;99.90;;;;;;5114163;28;20073;-58
2022/03/04 02:25:54;;;;;;;40.58;21.08;;;-3.70;99.90;;;;;;5095242;28;20367;-58
2022/03/04 02:28:21;;;;;;;38.45;20.55;;;-3.80;99.90;;;;;;5113998;28;20463;-58
2022/03/04 02:30:47;;;;;;;43.42;21.80;;;-3.80;99.90;;;;;;5114289;28;20074;-58
2022/03/04 02:33:13;;;;;;;37.20;20.67;;;-3.90;99.90;;;;;;5114167;28;20455;-58
2022/03/04 02:35:41;;;;;;;38.97;20.00;;;-3.90;99.90;;;;;;5113850;28;20027;-56
2022/03/04 02:38:06;;;;;;;35.33;21.45;;;-4.00;99.90;;;;;;5114037;28;20096;-58
2022/03/04 02:40:32;;;;;;;43.47;21.58;;;-4.10;99.90;;;;;;5113782;28;20455;-57
2022/03/04 02:42:58;;;;;;;36.20;21.73;;;-4.10;99.90;;;;;;5113900;28;20040;-58
2022/03/04 02:45:24;;;;;;;42.65;22.45;;;-4.10;99.90;;;;;;5113853;28;20020;-58
2022/03/04 02:47:50;;;;;;;42.70;23.95;;;-4.20;99.90;;;;;;5113974;28;20016;-57
2022/03/04 02:50:16;;;;;;;57.42;27.23;;;-4.20;99.90;;;;;;5113879;28;20568;-58
2022/03/04 02:52:41;;;;;;;46.70;24.00;;;-4.20;99.90;;;;;;5113523;28;20110;-56
2022/03/04 02:55:11;;;;;;;41.95;21.70;;;-4.30;99.90;;;;;;5113710;28;20072;-57
2022/03/04 02:57:46;;;;;;;46.88;22.77;;;-4.30;99.90;;;;;;5113409;28;20066;-58
2022/03/04 03:00:13;;;;;;;41.38;22.10;;;-4.40;99.90;;;;;;5113625;28;20460;-58
2022/03/04 03:02:40;;;;;;;42.47;22.58;;;-4.40;99.90;;;;;;5113639;28;20665;-58
2022/03/04 03:05:06;;;;;;;37.58;21.35;;;-4.40;99.90;;;;;;5113571;28;20072;-57
2022/03/04 03:07:32;;;;;;;36.15;21.23;;;-4.50;99.90;;;;;;5113484;28;20028;-59
2022/03/04 03:09:57;;;;;;;39.88;20.83;;;-4.50;99.90;;;;;;5113597;28;20387;-58
2022/03/04 03:12:23;;;;;;;38.42;21.95;;;-4.50;99.90;;;;;;5113201;28;20034;-59
2022/03/04 03:14:49;;;;;;;38.53;20.65;;;-4.50;99.90;;;;;;5113377;28;20027;-58
2022/03/04 03:17:15;;;;;;;36.72;20.65;;;-4.60;99.90;;;;;;5113074;28;20035;-59
2022/03/04 03:19:40;;;;;;;39.88;22.38;;;-4.70;99.90;;;;;;5112952;28;20063;-58
2022/03/04 03:22:06;;;;;;;32.42;19.98;;;-4.70;99.90;;;;;;5113181;28;20026;-58
2022/03/04 03:24:32;;;;;;;38.38;22.42;;;-4.60;99.90;;;;;;5113134;28;20387;-58
2022/03/04 03:26:58;;;;;;;36.40;21.65;;;-4.70;99.90;;;;;;5113049;28;20027;-57
2022/03/04 03:29:23;;;;;;;44.53;22.83;;;-4.70;99.90;;;;;;5113033;28;20031;-57
2022/03/04 03:31:49;;;;;;;40.65;21.42;;;-4.70;99.90;;;;;;5113037;28;20023;-58
2022/03/04 03:34:15;;;;;;;36.00;21.90;;;-4.70;99.90;;;;;;5113003;28;20027;-58
2022/03/04 03:36:41;;;;;;;36.55;21.77;;;-4.70;99.90;;;;;;5112679;28;20027;-58
2022/03/04 03:39:08;;;;;;;39.63;20.95;;;-4.80;99.90;;;;;;5112905;28;20072;-59
2022/03/04 03:41:35;;;;;;;45.60;22.23;;;-4.70;99.90;;;;;;5112632;28;20447;-58
2022/03/04 03:44:00;;;;;;;35.08;19.95;;;-4.70;99.90;;;;;;5112794;28;20024;-59
2022/03/04 03:46:26;;;;;;;39.28;21.65;;;-4.80;99.90;;;;;;5112722;28;20030;-57
2022/03/04 03:48:52;;;;;;;42.97;22.33;;;-4.80;99.90;;;;;;5112646;28;20026;-58
2022/03/04 03:51:18;;;;;;;46.00;21.23;;;-4.80;99.90;;;;;;5112592;28;20047;-59
2022/03/04 03:53:43;;;;;;;35.55;20.65;;;-4.80;99.90;;;;;;5112455;28;20363;-58
2022/03/04 03:56:09;;;;;;;39.65;19.25;;;-4.70;99.90;;;;;;5112411;28;20035;-57
2022/03/04 03:58:35;;;;;;;57.53;23.13;;;-4.70;99.90;;;;;;5121582;27;20019;-58
2022/03/04 04:01:01;;;;;;;40.70;21.10;;;-4.80;99.90;;;;;;5132965;27;20057;-58
2022/03/04 04:03:26;;;;;;;42.55;21.75;;;-4.80;99.90;;;;;;5131625;27;20027;-58
2022/03/04 04:05:52;;;;;;;42.75;22.48;;;-4.80;99.90;;;;;;5132314;27;20102;-58
2022/03/04 04:08:18;;;;;;;35.90;22.48;;;-4.90;99.90;;;;;;5132316;27;20438;-58
2022/03/04 04:10:44;;;;;;;67.03;29.33;;;-5.00;99.90;;;;;;5132591;27;20029;-56
2022/03/04 04:13:10;;;;;;;55.63;28.15;;;-5.00;99.90;;;;;;5132543;27;20553;-58
2022/03/04 04:15:35;;;;;;;110.47;41.90;;;-5.00;99.90;;;;;;5132636;27;20033;-58
2022/03/04 04:18:01;;;;;;;92.68;35.70;;;-5.00;99.90;;;;;;5113560;28;20067;-57
2022/03/04 04:20:28;;;;;;;82.95;34.83;;;-5.00;99.90;;;;;;5132783;27;20569;-58
2022/03/04 04:22:53;;;;;;;91.97;37.78;;;-5.00;99.90;;;;;;5132623;27;20023;-57
2022/03/04 04:25:19;;;;;;;65.93;30.00;;;-5.00;99.90;;;;;;5114030;27;20015;-58
2022/03/04 04:27:45;;;;;;;72.10;28.58;;;-5.00;99.90;;;;;;5132682;27;20034;-59
2022/03/04 04:30:11;;;;;;;63.35;29.15;;;-5.00;99.90;;;;;;5132556;27;20038;-58
2022/03/04 04:32:36;;;;;;;54.28;26.45;;;-5.00;99.90;;;;;;5132371;27;20031;-58
2022/03/04 04:35:03;;;;;;;62.55;27.98;;;-5.00;99.90;;;;;;5132697;27;20019;-57
2022/03/04 04:37:29;;;;;;;53.60;25.65;;;-5.00;99.90;;;;;;5132351;28;20050;-58
2022/03/04 04:39:54;;;;;;;52.20;26.30;;;-5.10;99.90;;;;;;5132493;28;20055;-57
2022/03/04 04:42:20;;;;;;;43.55;23.38;;;-5.00;99.90;;;;;;5132425;28;20027;-58
2022/03/04 04:44:46;;;;;;;41.88;22.83;;;-5.10;99.90;;;;;;5132468;28;20474;-57
2022/03/04 04:47:12;;;;;;;46.63;24.27;;;-5.10;99.90;;;;;;5132446;28;20027;-58
2022/03/04 04:49:38;;;;;;;47.65;23.83;;;-5.10;99.90;;;;;;5135563;27;20035;-58
2022/03/04 04:52:05;;;;;;;51.95;25.55;;;-5.20;99.90;;;;;;5136653;27;20427;-57
2022/03/04 04:54:32;;;;;;;49.47;25.23;;;-5.30;99.90;;;;;;5136536;27;20072;-56
2022/03/04 04:56:58;;;;;;;44.00;23.10;;;-5.30;99.90;;;;;;5118147;27;20033;-58
2022/03/04 04:59:24;;;;;;;38.75;22.58;;;-5.30;99.90;;;;;;5136421;27;20027;-58
2022/03/04 05:01:49;;;;;;;44.78;23.60;;;-5.30;99.90;;;;;;5136502;27;20030;-59
2022/03/04 05:04:15;;;;;;;52.40;24.13;;;-5.30;99.90;;;;;;5136445;27;20030;-57
2022/03/04 05:06:41;;;;;;;37.05;21.67;;;-5.30;99.90;;;;;;5136127;27;20025;-58
2022/03/04 05:09:06;;;;;;;43.65;22.00;;;-5.30;99.90;;;;;;5136441;27;20474;-58
2022/03/04 05:11:32;;;;;;;43.22;22.92;;;-5.30;99.90;;;;;;5136190;27;20015;-57
2022/03/04 05:13:58;;;;;;;41.40;23.02;;;-5.30;99.90;;;;;;5136221;27;20075;-57
2022/03/04 05:16:30;;;;;;;41.30;22.50;;;-5.30;99.90;;;;;;5135922;27;20023;-58
2022/03/04 05:18:55;;;;;;;42.42;24.35;;;-5.30;99.90;;;;;;5135985;27;20355;-58
2022/03/04 05:21:21;;;;;;;51.83;24.27;;;-5.30;99.90;;;;;;5117404;27;20064;-57
2022/03/04 05:24:06;;;;;;;44.83;24.25;;;-5.20;99.90;;;;;;5136027;27;20020;-57
2022/03/04 05:26:42;;;;;;;46.42;24.13;;;-5.20;99.90;;;;;;5135920;27;20022;-58
2022/03/04 05:29:10;;;;;;;55.13;24.35;;;-5.20;99.90;;;;;;5135963;27;20097;-58
2022/03/04 05:31:41;;;;;;;42.72;22.08;;;-5.20;99.90;;;;;;5135901;27;20488;-57
2022/03/04 05:34:07;;;;;;;46.45;23.10;;;-5.20;99.90;;;;;;5134628;27;20055;-58
2022/03/04 05:36:34;;;;;;;54.63;23.60;;;-5.20;99.90;;;;;;5134356;27;20019;-55
2022/03/04 05:38:59;;;;;;;71.47;27.13;;;-5.30;99.90;;;;;;5135712;27;20427;-59
2022/03/04 05:41:25;;;;;;;63.55;23.27;;;-5.30;99.90;;;;;;5135418;27;20102;-59
2022/03/04 05:43:51;;;;;;;43.70;24.95;;;-5.30;99.90;;;;;;5134956;27;20024;-58
2022/03/04 05:46:17;;;;;;;59.75;23.35;;;-5.30;99.90;;;;;;5134784;27;20483;-58
2022/03/04 05:48:43;;;;;;;58.38;22.65;;;-5.30;99.90;;;;;;5134673;27;20108;-57
2022/03/04 05:51:10;;;;;;;58.47;23.95;;;-5.30;99.90;;;;;;5134489;27;20379;-57
2022/03/04 05:53:36;;;;;;;50.22;24.83;;;-5.30;99.90;;;;;;5134220;27;20023;-62
2022/03/04 05:56:07;;;;;;;66.80;23.08;;;-5.20;99.90;;;;;;5134133;27;20033;-56
2022/03/04 05:58:33;;;;;;;48.42;24.08;;;-5.20;99.90;;;;;;5134146;27;20102;-54
2022/03/04 06:00:58;;;;;;;43.38;24.33;;;-5.20;99.90;;;;;;5133406;27;20176;-54
2022/03/04 06:03:24;;;;;;;56.50;24.90;;;-5.20;99.90;;;;;;5134365;27;20424;-54
2022/03/04 06:05:50;;;;;;;45.58;23.10;;;-5.10;99.90;;;;;;5134229;27;20023;-57
2022/03/04 06:08:16;;;;;;;48.47;23.67;;;-5.10;99.90;;;;;;5134250;27;20027;-58
2022/03/04 06:10:42;;;;;;;44.13;25.77;;;-5.10;99.90;;;;;;5134321;27;20015;-57
2022/03/04 06:13:07;;;;;;;43.80;23.20;;;-5.00;99.90;;;;;;5116578;27;20042;-53
2022/03/04 06:15:33;;;;;;;45.20;23.00;;;-5.00;99.90;;;;;;5134955;27;20076;-57
2022/03/04 06:17:59;;;;;;;49.47;23.88;;;-5.00;99.90;;;;;;5134876;27;20071;-56
2022/03/04 06:20:25;;;;;;;66.95;31.30;;;-5.00;99.90;;;;;;5134693;27;20501;-55
2022/03/04 06:22:51;;;;;;;84.22;37.92;;;-4.90;99.90;;;;;;5134986;27;20046;-57
2022/03/04 06:25:17;;;;;;;124.55;30.80;;;-4.80;99.90;;;;;;5134859;27;20015;-55
2022/03/04 06:27:56;;;;;;;83.95;34.55;;;-4.70;99.90;;;;;;5134712;27;20027;-55
2022/03/04 06:30:22;;;;;;;138.65;48.25;;;-4.60;99.90;;;;;;5134696;27;20382;-57
2022/03/04 06:32:49;;;;;;;75.47;32.30;;;-4.50;99.90;;;;;;5134760;27;20102;-61
2022/03/04 06:35:15;;;;;;;102.88;44.58;;;-4.40;99.90;;;;;;5134555;27;20031;-56
2022/03/04 06:37:41;;;;;;;193.25;80.80;;;-4.20;99.90;;;;;;5134456;27;20027;-54
2022/03/04 06:40:07;;;;;;;92.82;40.35;;;-4.10;99.90;;;;;;5134580;27;20024;-56
2022/03/04 06:42:33;;;;;;;164.88;69.60;;;-4.00;99.90;;;;;;5134588;27;20556;-54
2022/03/04 06:45:00;;;;;;;154.73;71.93;;;-3.90;99.90;;;;;;5115948;27;20080;-55
2022/03/04 06:47:25;;;;;;;114.70;54.15;;;-3.70;99.90;;;;;;5134308;27;20076;-56
2022/03/04 06:49:51;;;;;;;100.00;49.17;;;-3.50;99.90;;;;;;5134060;27;20023;-57
2022/03/04 06:52:17;;;;;;;253.30;112.40;;;-3.40;99.90;;;;;;5133899;27;20590;-56
2022/03/04 06:54:42;;;;;;;247.20;100.15;;;-3.30;99.90;;;;;;5134217;27;20046;-56
2022/03/04 06:57:08;;;;;;;173.68;75.78;;;-3.20;99.90;;;;;;5134071;27;20050;-58
2022/03/04 06:59:34;;;;;;;126.10;55.45;;;-3.10;99.90;;;;;;5133860;27;20350;-53
2022/03/04 07:02:01;;;;;;;53.00;27.35;;;-2.90;99.90;;;;;;5133979;27;20030;-57
2022/03/04 07:04:26;;;;;;;50.47;26.05;;;-2.70;99.90;;;;;;5133794;27;20027;-57
2022/03/04 07:06:52;;;;;;;56.00;30.58;;;-2.50;99.90;;;;;;5133861;27;20029;-57
2022/03/04 07:09:18;;;;;;;58.05;29.55;;;-2.30;99.90;;;;;;5133805;27;20106;-57
2022/03/04 07:11:43;;;;;;;48.00;24.33;;;-2.10;99.90;;;;;;5133524;27;20030;-58
2022/03/04 07:14:09;;;;;;;43.70;20.50;;;-1.80;99.90;;;;;;5133929;27;20408;-58
2022/03/04 07:16:35;;;;;;;44.20;21.70;;;-1.60;99.90;;;;;;5133565;27;20019;-58
2022/03/04 07:19:02;;;;;;;47.70;27.67;;;-1.40;99.90;;;;;;5133252;27;20039;-57
2022/03/04 07:21:28;;;;;;;39.20;22.00;;;-1.20;99.90;;;;;;5133288;27;20396;-55
2022/03/04 07:23:54;;;;;;;38.17;21.67;;;-1.10;99.90;;;;;;5133570;27;20032;-58
2022/03/04 07:26:20;;;;;;;43.80;21.63;;;-0.90;99.90;;;;;;5133434;27;20015;-58
2022/03/04 07:28:46;;;;;;;39.38;20.95;;;-0.80;99.40;;;;;;5133574;27;20027;-57
2022/03/04 07:31:12;;;;;;;43.30;21.83;;;-0.60;98.90;;;;;;5133497;27;20023;-58
2022/03/04 07:33:38;;;;;;;41.83;21.90;;;-0.50;98.40;;;;;;5114314;27;20662;-58
2022/03/04 07:36:05;;;;;;;43.30;22.80;;;-0.40;98.10;;;;;;5114181;27;20026;-58
2022/03/04 07:38:55;;;;;;;44.90;23.30;;;-0.40;97.70;;;;;;5131844;27;20020;-58
2022/03/04 07:41:21;;;;;;;40.55;21.13;;;-0.20;97.70;;;;;;5133073;27;20046;-56
2022/03/04 07:43:47;;;;;;;46.97;24.70;;;-0.10;97.70;;;;;;5132704;27;20027;-58
2022/03/04 07:46:12;;;;;;;53.42;24.52;;;0.00;97.30;;;;;;5131046;27;20019;-58
2022/03/04 07:48:38;;;;;;;62.80;35.08;;;0.10;96.50;;;;;;5132946;27;20027;-58
2022/03/04 07:51:05;;;;;;;53.70;30.35;;;0.20;96.90;;;;;;5131901;27;20027;-58
2022/03/04 07:53:31;;;;;;;60.47;33.65;;;0.20;96.80;;;;;;5132539;27;20023;-58
2022/03/04 07:55:56;;;;;;;60.78;32.58;;;0.30;97.10;;;;;;5132970;27;20030;-57
2022/03/04 07:58:22;;;;;;;60.03;30.92;;;0.40;97.30;;;;;;5131468;27;20027;-59
2022/03/04 08:00:48;;;;;;;74.03;39.55;;;0.50;97.30;;;;;;5133022;27;20067;-58
2022/03/04 08:03:13;;;;;;;46.35;27.58;;;0.50;96.60;;;;;;5132744;27;20019;-57
2022/03/04 08:05:39;;;;;;;54.60;25.63;;;0.60;95.90;;;;;;5132782;27;20609;-58
2022/03/04 08:08:05;;;;;;;49.65;24.77;;;0.60;96.30;;;;;;5132797;27;20410;-58
2022/03/04 08:10:31;;;;;;;55.97;29.52;;;0.80;96.40;;;;;;5132489;27;20104;-58
2022/03/04 08:12:57;;;;;;;52.88;28.10;;;0.80;95.90;;;;;;5132717;27;20019;-58
2022/03/04 08:15:23;;;;;;;80.78;48.03;;;0.90;96.50;;;;;;5132368;27;20030;-59
2022/03/04 08:17:48;;;;;;;39.92;24.35;;;1.10;96.30;;;;;;5131121;27;20046;-58
2022/03/04 08:20:15;;;;;;;42.38;24.13;;;1.20;96.10;;;;;;5132684;27;20023;-58
2022/03/04 08:22:41;;;;;;;44.13;25.13;;;1.30;96.30;;;;;;5132257;27;20545;-55
2022/03/04 08:25:07;;;;;;;49.90;25.50;;;1.40;94.90;;;;;;5132324;27;20111;-58
2022/03/04 08:27:38;;;;;;;44.10;23.33;;;1.40;96.00;;;;;;5132417;27;20027;-58
2022/03/04 08:30:05;;;;;;;44.63;24.10;;;1.50;95.50;;;;;;5132296;27;20023;-57
2022/03/04 08:32:31;;;;;;;42.53;23.00;;;1.60;94.80;;;;;;5132438;27;20055;-58
2022/03/04 08:35:00;;;;;;;43.17;22.85;;;1.80;94.90;;;;;;5132384;27;20047;-57
2022/03/04 08:37:26;;;;;;;39.33;23.45;;;1.80;91.70;;;;;;5132117;27;20030;-58
2022/03/04 08:39:52;;;;;;;42.95;25.05;;;1.90;92.10;;;;;;5132346;28;20019;-59
2022/03/04 08:42:17;;;;;;;39.30;21.80;;;1.90;91.70;;;;;;5130652;28;20023;-58
2022/03/04 08:44:43;;;;;;;41.53;24.75;;;2.10;91.40;;;;;;5130264;28;20049;-58
2022/03/04 08:47:09;;;;;;;42.67;24.58;;;2.20;90.10;;;;;;5132333;28;20035;-57
2022/03/04 08:49:35;;;;;;;42.78;23.48;;;2.10;90.80;;;;;;5132158;28;20079;-58
2022/03/04 08:52:01;;;;;;;46.83;22.38;;;2.20;88.80;;;;;;5132394;28;20019;-58
2022/03/04 08:54:27;;;;;;;41.30;22.58;;;2.30;89.40;;;;;;5132119;28;20027;-58
2022/03/04 08:56:53;;;;;;;46.90;26.50;;;2.40;88.10;;;;;;5132056;28;20029;-58
2022/03/04 08:59:19;;;;;;;47.30;22.00;;;2.50;88.90;;;;;;5132137;28;20023;-58
2022/03/04 09:01:44;;;;;;;43.33;24.85;;;2.50;87.40;;;;;;5131954;28;20019;-59
2022/03/04 09:04:14;;;;;;;37.45;21.60;;;2.60;86.90;;;;;;5132364;28;20114;-59
2022/03/04 09:06:40;;;;;;;39.38;22.90;;;2.80;87.50;;;;;;5132017;28;20118;-58
2022/03/04 09:09:06;;;;;;;40.20;22.92;;;2.90;85.10;;;;;;5132207;28;20416;-58
2022/03/04 09:11:32;;;;;;;43.10;22.60;;;3.00;83.10;;;;;;5131891;28;20023;-58
2022/03/04 09:13:57;;;;;;;37.95;22.27;;;3.00;81.90;;;;;;5132091;28;20366;-58
2022/03/04 09:16:23;;;;;;;42.03;23.35;;;3.30;82.70;;;;;;5134405;27;20502;-54
2022/03/04 09:18:49;;;;;;;45.38;24.20;;;3.50;81.70;;;;;;5150678;27;20046;-59
2022/03/04 09:21:15;;;;;;;36.15;22.48;;;3.60;79.30;;;;;;5151371;27;20080;-58
2022/03/04 09:23:41;;;;;;;37.90;22.48;;;3.80;77.10;;;;;;5133540;27;20023;-58
2022/03/04 09:26:06;;;;;;;49.40;26.20;;;3.80;74.20;;;;;;5143607;27;20023;-58
2022/03/04 09:28:32;;;;;;;43.17;23.75;;;4.00;74.10;;;;;;5131935;27;20034;-58
2022/03/04 09:30:58;;;;;;;72.57;38.65;;;4.10;74.80;;;;;;5131191;27;20583;-58
2022/03/04 09:33:23;;;;;;;43.08;26.23;;;4.30;73.30;;;;;;5132132;27;20027;-60
2022/03/04 09:35:49;;;;;;;61.63;46.33;;;4.50;71.30;;;;;;5152789;27;20045;-60
2022/03/04 09:38:15;;;;;;;42.55;25.33;;;4.40;71.70;;;;;;5153691;27;20062;-59
2022/03/04 09:40:41;;;;;;;44.22;23.42;;;4.60;70.70;;;;;;5136227;27;20623;-59
2022/03/04 09:43:07;;;;;;;46.88;24.15;;;4.80;69.30;;;;;;5136657;27;20619;-60
2022/03/04 09:46:21;;;;;;;51.40;25.70;;;4.80;67.10;;;;;;5135188;27;20530;-59
2022/03/04 09:48:51;;;;;;;43.45;22.10;;;5.00;66.90;;;;;;5135481;27;20023;-60
2022/03/04 09:51:17;;;;;;;39.65;23.65;;;5.20;65.80;;;;;;5136810;27;20019;-59
2022/03/04 09:53:44;;;;;;;39.95;21.92;;;5.30;65.10;;;;;;5155845;27;20086;-59
2022/03/04 09:56:10;;;;;;;35.60;21.60;;;5.60;64.90;;;;;;5137161;27;20023;-58
2022/03/04 09:58:37;;;;;;;38.40;22.25;;;5.80;65.40;;;;;;5155732;27;20066;-59
2022/03/04 10:01:09;;;;;;;24.98;15.63;;;6.10;64.20;;;;;;5155991;27;20094;-59
2022/03/04 10:03:42;;;;;;;25.05;13.90;;;6.10;61.40;;;;;;5154726;27;20511;-60
2022/03/04 10:06:08;;;;;;;23.95;15.30;;;6.20;58.70;;;;;;5155312;27;20030;-59
2022/03/04 10:08:47;;;;;;;31.05;16.13;;;6.00;60.10;;;;;;5153693;27;20475;-59
2022/03/04 10:11:24;;;;;;;24.52;14.52;;;6.30;60.00;;;;;;5155578;27;20026;-59
2022/03/04 10:13:53;;;;;;;27.55;16.73;;;6.30;58.70;;;;;;5114500;28;20047;-59
2022/03/04 10:16:25;;;;;;;28.60;15.10;;;6.10;57.60;;;;;;5114265;28;20026;-59
2022/03/04 10:19:17;;;;;;;23.17;12.95;;;6.20;57.90;;;;;;5113775;28;20039;-57
2022/03/04 10:21:52;;;;;;;28.17;13.25;;;6.40;58.90;;;;;;5122695;27;20018;-57
2022/03/04 10:24:38;;;;;;;23.42;12.95;;;6.30;56.60;;;;;;5155308;27;20015;-56
2022/03/04 10:27:12;;;;;;;21.17;13.50;;;6.60;58.10;;;;;;5154832;27;20353;-56
2022/03/04 10:29:40;;;;;;;22.55;14.15;;;6.60;56.30;;;;;;5154927;27;20026;-60
2022/03/04 10:32:07;;;;;;;23.33;13.73;;;6.90;57.10;;;;;;5147800;27;20031;-59
2022/03/04 10:34:52;;;;;;;20.95;13.75;;;7.10;55.80;;;;;;5135283;27;20023;-59
2022/03/04 10:37:51;;;;;;;24.13;14.85;;;7.10;55.80;;;;;;5134356;27;20023;-57
2022/03/04 10:40:21;;;;;;;23.20;15.25;;;7.50;55.00;;;;;;5127768;27;20377;-59
2022/03/04 10:42:51;;;;;;;29.45;15.73;;;8.30;53.10;;;;;;5145960;27;20091;-59
2022/03/04 10:45:24;;;;;;;24.83;13.60;;;8.70;51.00;;;;;;5154379;27;20376;-59
2022/03/04 10:47:52;;;;;;;33.20;16.42;;;10.20;48.20;;;;;;5154025;27;20042;-58
2022/03/04 10:50:26;;;;;;;26.65;16.27;;;10.30;44.50;;;;;;5154280;27;20026;-59
2022/03/04 10:52:59;;;;;;;39.60;22.38;;;11.10;43.50;;;;;;5140565;27;20023;-59
2022/03/04 10:55:31;;;;;;;25.85;15.40;;;11.60;41.80;;;;;;5133254;27;20062;-60
2022/03/04 10:57:59;;;;;;;25.40;16.08;;;13.90;41.30;;;;;;5144808;27;20022;-60
2022/03/04 11:00:29;;;;;;;25.40;14.93;;;14.50;37.90;;;;;;5154593;27;20153;-60
2022/03/04 11:02:56;;;;;;;23.88;15.82;;;14.40;36.90;;;;;;5153033;27;20050;-60
2022/03/04 11:05:23;;;;;;;24.55;14.52;;;13.20;35.90;;;;;;5154054;27;20027;-60
2022/03/04 11:07:49;;;;;;;23.65;14.48;;;13.10;37.30;;;;;;5154208;27;20439;-61
2022/03/04 11:10:15;;;;;;;36.72;18.10;;;14.10;38.30;;;;;;5154052;27;20640;-60
2022/03/04 11:12:42;;;;;;;30.45;14.75;;;14.70;36.40;;;;;;5144511;27;20446;-60
2022/03/04 11:15:11;;;;;;;28.90;14.38;;;14.90;35.40;;;;;;5133889;27;20026;-60
2022/03/04 11:17:38;;;;;;;19.80;14.27;;;15.30;35.30;;;;;;5132945;27;20409;-60
2022/03/04 11:20:08;;;;;;;26.27;15.27;;;14.20;34.30;;;;;;5132510;27;20030;-61
2022/03/04 11:22:34;;;;;;;25.35;16.40;;;14.30;34.80;;;;;;5140737;27;20113;-60
2022/03/04 11:25:10;;;;;;;22.65;13.05;;;14.60;36.40;;;;;;5153490;27;20109;-61
2022/03/04 11:27:49;;;;;;;17.90;11.93;;;14.40;35.90;;;;;;5153863;27;20019;-60
2022/03/04 11:30:37;;;;;;;37.13;13.63;;;15.40;34.60;;;;;;5150883;27;20087;-60
2022/03/04 11:33:12;;;;;;;20.50;15.30;;;15.00;34.40;;;;;;5134077;27;20114;-60
2022/03/04 11:36:11;;;;;;;22.70;15.77;;;14.60;36.30;;;;;;5133088;27;20030;-60
2022/03/04 11:38:46;;;;;;;22.55;11.35;;;14.90;36.60;;;;;;5133184;27;20034;-60
2022/03/04 11:41:22;;;;;;;25.25;11.18;;;14.40;32.30;;;;;;5143587;27;20461;-60
2022/03/04 11:43:55;;;;;;;18.45;10.88;;;14.30;34.70;;;;;;5153880;27;20026;-61
2022/03/04 11:46:25;;;;;;;20.35;10.07;;;14.80;34.50;;;;;;5153819;27;20018;-60
2022/03/04 11:49:26;;;;;;;32.85;11.68;;;15.50;34.30;;;;;;5153880;27;20108;-60
2022/03/04 11:52:10;;;;;;;21.13;12.50;;;13.90;35.60;;;;;;5153911;27;20022;-61
2022/03/04 11:54:39;;;;;;;;;;;14.40;35.00;;;;;;5133765;27;20019;-60
2022/03/04 11:57:33;;;;;;;16.80;11.38;;;14.80;34.40;;;;;;5132686;27;19907;-61
2022/03/04 12:00:19;;;;;;;20.08;12.38;;;15.20;34.00;;;;;;5132786;27;20026;-60
2022/03/04 12:02:47;;;;;;;19.75;11.98;;;15.70;34.40;;;;;;5135941;27;20058;-61
2022/03/04 12:05:30;;;;;;;28.85;10.52;;;16.10;33.10;;;;;;5153661;27;20015;-60
2022/03/04 12:07:55;;;;;;;17.20;10.50;;;15.80;32.20;;;;;;5153688;27;20022;-61
2022/03/04 12:10:24;;;;;;;11.98;8.73;;;16.40;32.70;;;;;;5153295;27;20030;-61
2022/03/04 12:12:59;;;;;;;19.23;10.77;;;16.50;31.50;;;;;;5153552;27;20031;-60
2022/03/04 12:15:28;;;;;;;20.75;11.18;;;16.50;30.70;;;;;;5146372;27;20029;-60
2022/03/04 12:18:05;;;;;;;15.98;10.65;;;14.70;31.70;;;;;;5132449;27;20118;-60
2022/03/04 12:20:40;;;;;;;28.45;14.48;;;13.10;34.20;;;;;;5133759;27;20027;-60
2022/03/04 12:23:14;;;;;;;23.10;14.32;;;11.70;35.50;;;;;;5132624;27;20887;-61
2022/03/04 12:25:55;;;;;;;26.67;11.05;;;11.10;37.30;;;;;;5132487;27;20032;-61
2022/03/04 12:28:26;;;;;;;16.85;10.35;;;11.10;37.80;;;;;;5132313;27;20076;-60
2022/03/04 12:31:01;;;;;;;19.73;11.48;;;11.80;37.80;;;;;;5150623;27;20134;-61
2022/03/04 12:33:38;;;;;;;17.25;11.02;;;12.10;36.30;;;;;;5153002;27;20101;-61